createdAt,value
2018-08-09T00:00:29.316Z,23.45
2018-08-09T00:02:58.971Z,23.51
2018-08-09T00:05:28.884Z,23.51
2018-08-09T00:07:58.435Z,23.46
2018-08-09T00:10:27.965Z,23.48
2018-08-09T00:12:57.169Z,23.44
2018-08-09T00:15:27.297Z,23.34
2018-08-09T00:17:56.476Z,23.35
2018-08-09T00:20:26.046Z,23.40
2018-08-09T00:22:55.278Z,23.36
2018-08-09T00:25:24.533Z,23.39
2018-08-09T00:27:53.756Z,23.31
2018-08-09T00:30:22.964Z,23.31
2018-08-09T00:32:52.178Z,23.33
2018-08-09T00:35:21.444Z,23.34
2018-08-09T00:37:50.659Z,23.36
2018-08-09T00:40:19.840Z,23.33
2018-08-09T00:42:49.594Z,23.28
2018-08-09T00:45:19.344Z,23.23
2018-08-09T00:47:49.113Z,23.13
2018-08-09T00:50:18.820Z,23.07
2018-08-09T00:52:48.424Z,23.09
2018-08-09T00:55:17.580Z,23.03
2018-08-09T00:57:46.777Z,23.06
2018-08-09T01:00:16.012Z,23.01
2018-08-09T01:02:45.205Z,22.96
2018-08-09T01:05:14.542Z,22.91
2018-08-09T01:07:43.737Z,22.89
2018-08-09T01:10:13.084Z,22.78
2018-08-09T01:12:42.312Z,22.67
2018-08-09T01:15:11.689Z,22.68
2018-08-09T01:17:40.850Z,22.64
2018-08-09T01:20:10.054Z,22.67
2018-08-09T01:22:39.216Z,22.67
2018-08-09T01:25:08.469Z,22.68
2018-08-09T01:27:37.644Z,22.86
2018-08-09T01:30:07.081Z,22.94
2018-08-09T01:32:36.381Z,22.96
2018-08-09T01:35:06.160Z,22.92
2018-08-09T01:37:35.503Z,22.84
2018-08-09T01:40:05.499Z,22.74
2018-08-09T01:42:45.980Z,22.70
2018-08-09T01:45:15.167Z,22.64
2018-08-09T01:47:44.606Z,22.46
2018-08-09T01:50:14.172Z,22.33
2018-08-09T01:52:43.528Z,22.33
2018-08-09T01:55:12.888Z,22.39
2018-08-09T01:57:42.211Z,22.36
2018-08-09T02:00:11.540Z,22.43
2018-08-09T02:02:40.810Z,22.60
2018-08-09T02:05:10.568Z,22.63
2018-08-09T02:07:39.773Z,22.60
2018-08-09T02:10:08.941Z,22.61
2018-08-09T02:12:38.137Z,22.57
2018-08-09T02:15:08.127Z,22.55
2018-08-09T02:17:37.919Z,22.50
2018-08-09T02:20:07.220Z,22.45
2018-08-09T02:22:36.428Z,22.39
2018-08-09T02:25:06.309Z,22.32
2018-08-09T02:27:36.888Z,22.26
2018-08-09T02:30:06.625Z,22.23
2018-08-09T02:32:36.017Z,22.10
2018-08-09T02:35:05.513Z,22.12
2018-08-09T02:37:34.760Z,21.95
2018-08-09T02:40:04.165Z,21.92
2018-08-09T02:42:33.356Z,21.91
2018-08-09T02:45:03.279Z,21.81
2018-08-09T02:47:32.474Z,21.82
2018-08-09T02:50:01.822Z,21.85
2018-08-09T02:52:31.267Z,21.77
2018-08-09T02:55:00.503Z,21.70
2018-08-09T02:57:29.829Z,21.55
2018-08-09T02:59:59.104Z,21.54
2018-08-09T03:02:28.533Z,21.39
2018-08-09T03:04:58.152Z,21.31
2018-08-09T03:07:27.441Z,21.17
2018-08-09T03:09:56.765Z,21.06
2018-08-09T03:12:26.037Z,20.97
2018-08-09T03:14:55.291Z,20.86
2018-08-09T03:17:24.685Z,20.80
2018-08-09T03:19:54.103Z,20.76
2018-08-09T03:22:23.391Z,20.69
2018-08-09T03:24:52.687Z,20.69
2018-08-09T03:27:22.504Z,20.70
2018-08-09T03:29:51.781Z,20.70
2018-08-09T03:32:21.164Z,20.68
2018-08-09T03:34:50.431Z,20.68
2018-08-09T03:37:19.646Z,20.75
2018-08-09T03:39:49.479Z,20.81
2018-08-09T03:42:18.748Z,21.05
2018-08-09T03:44:47.973Z,21.31
2018-08-09T03:47:17.272Z,21.40
2018-08-09T03:49:46.560Z,21.34
2018-08-09T03:52:15.886Z,21.31
2018-08-09T03:54:45.276Z,21.30
2018-08-09T03:57:14.887Z,21.34
2018-08-09T03:59:44.227Z,21.41
2018-08-09T04:02:13.876Z,21.51
2018-08-09T04:04:43.108Z,21.65
2018-08-09T04:07:12.619Z,21.80
2018-08-09T04:09:41.801Z,21.95
2018-08-09T04:12:11.046Z,22.08
2018-08-09T04:14:40.227Z,22.20
2018-08-09T04:17:13.792Z,22.33
2018-08-09T04:19:43.103Z,22.47
2018-08-09T04:22:12.479Z,22.74
2018-08-09T04:24:41.965Z,22.94
2018-08-09T04:27:11.248Z,23.04
2018-08-09T04:29:40.632Z,23.20
2018-08-09T04:32:09.884Z,23.53
2018-08-09T04:34:39.116Z,23.67
2018-08-09T04:37:08.684Z,23.78
2018-08-09T04:39:38.327Z,23.96
2018-08-09T04:42:08.027Z,24.22
2018-08-09T04:44:37.276Z,24.41
2018-08-09T04:47:06.552Z,24.55
2018-08-09T04:49:35.804Z,24.62
2018-08-09T04:52:05.368Z,24.56
2018-08-09T04:54:34.590Z,24.64
2018-08-09T04:57:04.405Z,24.76
2018-08-09T04:59:33.635Z,25.02
2018-08-09T05:02:02.952Z,25.19
2018-08-09T05:04:32.309Z,25.29
2018-08-09T05:07:01.609Z,25.37
2018-08-09T05:09:30.868Z,25.60
2018-08-09T05:12:00.376Z,25.80
2018-08-09T05:14:29.556Z,25.86
2018-08-09T05:16:58.836Z,26.02
2018-08-09T05:19:28.132Z,26.29
2018-08-09T05:21:57.373Z,26.47
2018-08-09T05:24:26.629Z,26.80
2018-08-09T05:26:56.149Z,27.52
2018-08-09T05:29:25.409Z,28.34
2018-08-09T05:31:55.249Z,29.38
2018-08-09T05:34:24.501Z,30.12
2018-08-09T05:36:53.719Z,30.98
2018-08-09T05:39:23.037Z,31.49
2018-08-09T05:41:52.495Z,32.09
2018-08-09T05:44:22.421Z,32.66
2018-08-09T05:46:51.660Z,33.56
2018-08-09T05:49:21.067Z,34.60
2018-08-09T05:51:50.836Z,35.04
2018-08-09T05:54:20.081Z,36.13
2018-08-09T05:56:49.320Z,37.23
2018-08-09T05:59:18.260Z,37.98
2018-08-09T06:01:47.612Z,38.86
2018-08-09T06:04:16.882Z,39.45
2018-08-09T06:06:45.784Z,40.18
2018-08-09T06:09:15.277Z,40.83
2018-08-09T06:11:44.200Z,41.10
2018-08-09T06:14:13.257Z,41.84
2018-08-09T06:16:42.155Z,42.09
2018-08-09T06:19:11.387Z,42.84
2018-08-09T06:21:40.330Z,43.31
2018-08-09T06:24:09.282Z,43.59
2018-08-09T06:26:38.657Z,44.16
2018-08-09T06:29:08.409Z,44.77
2018-08-09T06:31:37.401Z,44.58
2018-08-09T06:34:06.372Z,43.11
2018-08-09T06:36:35.255Z,41.85
2018-08-09T06:39:05.844Z,41.62
2018-08-09T06:41:34.785Z,42.40
2018-08-09T06:44:03.673Z,43.65
2018-08-09T06:46:32.626Z,44.81
2018-08-09T06:49:01.529Z,45.89
2018-08-09T06:51:30.457Z,46.34
2018-08-09T06:53:59.364Z,45.56
2018-08-09T06:56:28.241Z,45.25
2018-08-09T06:58:57.174Z,44.58
2018-08-09T07:01:26.245Z,44.12
2018-08-09T07:03:55.159Z,44.31
2018-08-09T07:06:24.067Z,45.01
2018-08-09T07:08:52.956Z,45.59
2018-08-09T07:11:21.906Z,46.75
2018-08-09T07:13:50.816Z,47.90
2018-08-09T07:16:19.694Z,48.83
2018-08-09T07:18:49.028Z,49.04
2018-08-09T07:21:17.912Z,49.20
2018-08-09T07:23:46.896Z,49.74
2018-08-09T07:26:16.170Z,49.41
2018-08-09T07:28:45.427Z,49.77
2018-08-09T07:31:14.521Z,50.36
2018-08-09T07:33:43.971Z,50.81
2018-08-09T07:36:13.352Z,50.15
2018-08-09T07:38:42.325Z,49.71
2018-08-09T07:41:11.236Z,50.51
2018-08-09T07:43:40.343Z,51.04
2018-08-09T07:46:09.601Z,51.35
2018-08-09T07:48:38.601Z,51.58
2018-08-09T07:51:07.989Z,51.75
2018-08-09T07:53:36.892Z,52.03
2018-08-09T07:56:05.813Z,52.08
2018-08-09T07:58:34.765Z,51.59
2018-08-09T08:01:03.748Z,49.82
2018-08-09T08:03:32.638Z,49.25
2018-08-09T08:06:01.574Z,49.30
2018-08-09T08:08:30.674Z,49.87
2018-08-09T08:11:00.087Z,50.20
2018-08-09T08:13:31.727Z,50.70
2018-08-09T08:16:01.256Z,51.06
2018-08-09T08:18:30.805Z,50.68
2018-08-09T08:20:59.725Z,50.10
2018-08-09T08:23:28.632Z,47.91
2018-08-09T08:25:57.704Z,47.33
2018-08-09T08:28:26.662Z,46.94
2018-08-09T08:30:55.559Z,46.86
2018-08-09T08:33:24.457Z,46.36
2018-08-09T08:35:53.354Z,46.84
2018-08-09T08:38:22.319Z,46.79
2018-08-09T08:40:51.616Z,47.40
2018-08-09T08:43:20.508Z,48.07
2018-08-09T08:45:49.695Z,48.06
2018-08-09T08:48:18.679Z,48.58
2018-08-09T08:50:48.189Z,48.97
2018-08-09T08:53:17.134Z,48.93
2018-08-09T08:55:46.199Z,48.16
2018-08-09T08:58:16.256Z,48.92
2018-08-09T09:00:45.190Z,48.60
2018-08-09T09:03:14.518Z,49.15
2018-08-09T09:05:44.029Z,49.47
2018-08-09T09:08:13.448Z,49.45
2018-08-09T09:10:42.611Z,49.34
2018-08-09T09:13:12.025Z,48.92
2018-08-09T09:15:41.063Z,48.15
2018-08-09T09:18:09.952Z,47.10
2018-08-09T09:20:38.835Z,45.97
2018-08-09T09:23:07.843Z,44.66
2018-08-09T09:25:36.744Z,43.56
2018-08-09T09:28:06.760Z,42.59
2018-08-09T09:30:36.157Z,42.05
2018-08-09T09:33:05.117Z,41.72
2018-08-09T09:35:34.042Z,41.32
2018-08-09T09:38:03.224Z,40.88
2018-08-09T09:40:32.167Z,40.59
2018-08-09T09:43:01.075Z,40.40
2018-08-09T09:45:30.060Z,39.80
2018-08-09T09:47:59.396Z,39.53
2018-08-09T09:50:28.269Z,39.24
2018-08-09T09:52:57.246Z,39.30
2018-08-09T09:55:26.205Z,39.47
2018-08-09T09:57:55.493Z,39.66
2018-08-09T10:00:28.296Z,39.93
2018-08-09T10:02:57.181Z,40.18
2018-08-09T10:05:26.182Z,40.39
2018-08-09T10:07:55.041Z,40.47
2018-08-09T10:10:23.977Z,40.39
2018-08-09T10:12:53.033Z,40.11
2018-08-09T10:15:22.044Z,39.85
2018-08-09T10:17:50.975Z,39.56
2018-08-09T10:20:19.906Z,39.23
2018-08-09T10:22:48.793Z,39.11
2018-08-09T10:25:17.696Z,38.81
2018-08-09T10:27:46.600Z,38.54
2018-08-09T10:30:15.639Z,38.40
2018-08-09T10:32:44.534Z,38.48
2018-08-09T10:35:13.613Z,38.62
2018-08-09T10:37:42.736Z,38.67
2018-08-09T10:40:11.616Z,38.44
2018-08-09T10:42:42.582Z,38.43
2018-08-09T10:45:11.652Z,38.52
2018-08-09T10:47:40.620Z,38.57
2018-08-09T10:50:09.582Z,38.54
2018-08-09T10:52:38.448Z,38.45
2018-08-09T10:55:07.614Z,38.19
2018-08-09T10:57:36.494Z,37.91
2018-08-09T11:00:07.905Z,37.65
2018-08-09T11:02:36.862Z,37.57
2018-08-09T11:05:05.898Z,37.61
2018-08-09T11:07:34.765Z,37.87
2018-08-09T11:10:04.333Z,38.11
2018-08-09T11:12:33.276Z,38.36
2018-08-09T11:15:02.309Z,38.19
2018-08-09T11:17:31.372Z,38.11
2018-08-09T11:20:00.901Z,37.90
2018-08-09T11:22:30.093Z,37.64
2018-08-09T11:24:59.296Z,37.51
2018-08-09T11:27:28.512Z,37.40
2018-08-09T11:29:57.830Z,37.38
2018-08-09T11:32:27.024Z,37.36
2018-08-09T11:34:56.553Z,37.35
2018-08-09T11:37:25.765Z,37.32
2018-08-09T11:39:55.238Z,37.25
2018-08-09T11:42:24.625Z,37.09
2018-08-09T11:44:53.832Z,37.05
2018-08-09T11:47:23.032Z,36.79
2018-08-09T11:49:55.468Z,36.39
2018-08-09T11:52:24.676Z,36.34
2018-08-09T11:54:53.921Z,36.26
2018-08-09T11:57:23.199Z,36.26
2018-08-09T11:59:52.664Z,36.33
2018-08-09T12:02:21.937Z,36.40
2018-08-09T12:04:51.139Z,36.34
2018-08-09T12:07:20.346Z,36.38
2018-08-09T12:09:49.517Z,36.18
2018-08-09T12:12:18.773Z,36.16
2018-08-09T12:14:47.907Z,36.21
2018-08-09T12:17:17.071Z,36.34
2018-08-09T12:19:45.962Z,36.40
2018-08-09T12:22:14.984Z,36.30
2018-08-09T12:24:44.005Z,36.11
2018-08-09T12:27:13.440Z,36.03
2018-08-09T12:29:42.381Z,36.03
2018-08-09T12:32:11.708Z,36.06
2018-08-09T12:34:40.900Z,36.05
2018-08-09T12:37:10.088Z,35.85
2018-08-09T12:39:39.447Z,35.75
2018-08-09T12:42:08.370Z,35.76
2018-08-09T12:44:37.610Z,35.73
2018-08-09T12:47:08.136Z,35.71
2018-08-09T12:49:37.142Z,35.74
2018-08-09T12:52:06.972Z,35.81
2018-08-09T12:54:36.041Z,35.84
2018-08-09T12:57:05.316Z,35.72
2018-08-09T12:59:34.547Z,35.68
2018-08-09T13:02:03.853Z,35.77
2018-08-09T13:04:33.117Z,35.82
2018-08-09T13:07:02.948Z,35.75
2018-08-09T13:09:32.248Z,35.69
2018-08-09T13:12:01.679Z,35.77
2018-08-09T13:14:31.284Z,35.77
2018-08-09T13:17:00.640Z,35.65
2018-08-09T13:19:29.858Z,35.25
2018-08-09T13:21:59.707Z,34.74
2018-08-09T13:24:28.960Z,34.54
2018-08-09T13:26:58.208Z,34.39
2018-08-09T13:29:28.155Z,34.28
2018-08-09T13:31:58.212Z,34.05
2018-08-09T13:34:28.525Z,33.85
2018-08-09T13:36:58.269Z,33.69
2018-08-09T13:39:28.441Z,33.57
2018-08-09T13:41:58.781Z,33.46
2018-08-09T13:44:28.094Z,33.35
2018-08-09T13:46:57.347Z,33.27
2018-08-09T13:49:26.735Z,33.24
2018-08-09T13:51:55.949Z,33.23
2018-08-09T13:54:25.215Z,33.19
2018-08-09T13:56:54.656Z,33.07
2018-08-09T13:59:23.864Z,33.05
2018-08-09T14:01:53.024Z,33.02
2018-08-09T14:06:44.929Z,32.92
2018-08-09T14:09:14.848Z,32.83
2018-08-09T14:11:44.085Z,32.73
2018-08-09T14:14:13.564Z,32.66
2018-08-09T14:16:42.746Z,32.58
2018-08-09T14:19:11.932Z,32.41
2018-08-09T14:21:41.099Z,32.32
2018-08-09T14:24:11.004Z,32.29
2018-08-09T14:26:40.242Z,32.17
2018-08-09T14:29:09.866Z,32.02
2018-08-09T14:31:39.281Z,32.02
2018-08-09T14:34:08.519Z,31.97
2018-08-09T14:36:38.029Z,31.85
2018-08-09T14:39:09.733Z,31.75
2018-08-09T14:41:39.323Z,31.58
2018-08-09T14:44:08.985Z,31.47
2018-08-09T14:46:38.161Z,31.35
2018-08-09T14:49:07.397Z,31.28
2018-08-09T14:51:37.900Z,31.22
2018-08-09T14:54:07.183Z,31.16
2018-08-09T14:56:36.452Z,31.11
2018-08-09T14:59:05.772Z,31.24
2018-08-09T15:01:35.320Z,31.36
2018-08-09T15:04:04.532Z,31.38
2018-08-09T15:06:34.066Z,31.40
2018-08-09T15:09:03.832Z,31.47
2018-08-09T15:11:33.136Z,31.68
2018-08-09T15:14:02.517Z,31.67
2018-08-09T15:16:31.960Z,31.68
2018-08-09T15:19:01.188Z,31.79
2018-08-09T15:21:30.528Z,31.88
2018-08-09T15:24:00.325Z,32.00
2018-08-09T15:26:29.544Z,32.14
2018-08-09T15:28:58.844Z,32.33
2018-08-09T15:31:28.360Z,32.54
2018-08-09T15:33:57.545Z,32.69
2018-08-09T15:36:26.743Z,32.83
2018-08-09T15:38:55.917Z,33.02
2018-08-09T15:41:25.434Z,33.19
2018-08-09T15:43:54.875Z,33.38
2018-08-09T15:46:24.092Z,33.55
2018-08-09T15:48:53.312Z,33.73
2018-08-09T15:51:22.788Z,33.86
2018-08-09T15:53:51.968Z,33.81
2018-08-09T15:56:21.221Z,33.63
2018-08-09T15:58:50.490Z,33.39
2018-08-09T16:01:19.708Z,33.19
2018-08-09T16:03:48.898Z,33.04
2018-08-09T16:06:18.097Z,32.87
2018-08-09T16:08:47.339Z,32.69
2018-08-09T16:11:16.659Z,32.53
2018-08-09T16:13:45.880Z,32.32
2018-08-09T16:16:15.301Z,32.14
2018-08-09T16:18:44.995Z,31.98
2018-08-09T16:21:14.347Z,31.86
2018-08-09T16:23:43.534Z,31.75
2018-08-09T16:26:12.851Z,31.63
2018-08-09T16:28:42.537Z,31.57
2018-08-09T16:31:11.859Z,31.52
2018-08-09T16:33:41.083Z,31.45
2018-08-09T16:36:10.318Z,31.28
2018-08-09T16:38:39.870Z,31.14
2018-08-09T16:41:09.144Z,31.01
2018-08-09T16:43:38.364Z,30.93
2018-08-09T16:46:07.691Z,30.87
2018-08-09T16:48:37.008Z,30.83
2018-08-09T16:51:06.282Z,30.79
2018-08-09T16:53:35.616Z,30.76
2018-08-09T16:56:05.201Z,30.73
2018-08-09T16:58:34.426Z,30.72
2018-08-09T17:01:03.635Z,30.71
2018-08-09T17:03:33.216Z,30.64
2018-08-09T17:06:02.547Z,30.62
2018-08-09T17:08:31.999Z,30.59
2018-08-09T17:11:01.193Z,30.56
2018-08-09T17:13:30.528Z,30.51
2018-08-09T17:16:00.347Z,30.48
2018-08-09T17:18:29.657Z,30.46
2018-08-09T17:20:59.270Z,30.40
2018-08-09T17:23:28.601Z,30.33
2018-08-09T17:25:57.804Z,30.26
2018-08-09T17:28:27.272Z,30.22
2018-08-09T17:30:56.573Z,30.15
2018-08-09T17:33:26.168Z,30.08
2018-08-09T17:35:56.288Z,30.02
2018-08-09T17:38:25.968Z,29.97
2018-08-09T17:40:55.301Z,29.93
2018-08-09T17:43:25.274Z,29.86
2018-08-09T17:45:54.580Z,29.81
2018-08-09T17:48:24.251Z,29.74
2018-08-09T17:50:53.757Z,29.70
2018-08-09T17:53:23.033Z,29.67
2018-08-09T17:55:52.312Z,29.61
2018-08-09T17:58:22.249Z,29.56
2018-08-09T18:00:52.463Z,29.52
2018-08-09T18:03:21.766Z,29.49
2018-08-09T18:05:50.976Z,29.43
2018-08-09T18:08:20.393Z,29.37
2018-08-09T18:10:49.712Z,29.31
2018-08-09T18:13:18.896Z,29.30
2018-08-09T18:15:48.722Z,29.21
2018-08-09T18:18:17.932Z,29.19
2018-08-09T18:20:47.206Z,29.12
2018-08-09T18:23:16.612Z,29.07
2018-08-09T18:25:45.897Z,29.05
2018-08-09T18:28:15.443Z,28.98
2018-08-09T18:30:44.795Z,28.92
2018-08-09T18:33:14.414Z,28.90
2018-08-09T18:35:43.600Z,28.85
2018-08-09T18:38:12.975Z,28.78
2018-08-09T18:40:42.249Z,28.70
2018-08-09T18:43:11.950Z,28.60
2018-08-09T18:45:41.643Z,28.55
2018-08-09T18:48:10.856Z,28.48
2018-08-09T18:50:40.159Z,28.39
2018-08-09T18:53:09.518Z,28.36
2018-08-09T18:55:38.785Z,28.29
2018-08-09T18:58:08.038Z,28.25
2018-08-09T19:00:37.273Z,28.17
2018-08-09T19:03:06.565Z,28.10
2018-08-09T19:05:35.760Z,28.06
2018-08-09T19:08:04.985Z,27.98
2018-08-09T19:10:34.563Z,27.93
2018-08-09T19:13:04.371Z,27.88
2018-08-09T19:15:34.387Z,27.88
2018-08-09T19:18:03.641Z,27.88
2018-08-09T19:20:34.716Z,27.86
2018-08-09T19:23:04.825Z,27.80
2018-08-09T19:25:34.489Z,27.72
2018-08-09T19:28:03.746Z,27.67
2018-08-09T19:30:33.388Z,27.67
2018-08-09T19:33:03.395Z,27.67
2018-08-09T19:35:32.598Z,27.62
2018-08-09T19:38:01.876Z,27.59
2018-08-09T19:40:31.335Z,27.56
2018-08-09T19:43:01.543Z,27.57
2018-08-09T19:45:31.148Z,27.54
2018-08-09T19:48:00.373Z,27.51
2018-08-09T19:50:29.889Z,27.48
2018-08-09T19:52:59.491Z,27.48
2018-08-09T19:55:29.596Z,27.47
2018-08-09T19:57:59.244Z,27.42
2018-08-09T20:00:29.864Z,27.42
2018-08-09T20:02:59.201Z,27.42
2018-08-09T20:05:28.500Z,27.41
2018-08-09T20:07:58.371Z,27.42
2018-08-09T20:10:27.768Z,27.45
2018-08-09T20:12:57.072Z,27.45
2018-08-09T20:15:26.477Z,27.51
2018-08-09T20:17:55.768Z,27.53
2018-08-09T20:20:26.371Z,27.55
2018-08-09T20:22:55.723Z,27.62
2018-08-09T20:25:25.134Z,27.72
2018-08-09T20:27:54.706Z,27.72
2018-08-09T20:30:24.027Z,27.78
2018-08-09T20:32:53.218Z,27.83
2018-08-09T20:35:23.776Z,27.87
2018-08-09T20:39:22.385Z,27.87
2018-08-09T20:41:52.340Z,27.81
2018-08-09T20:44:21.617Z,27.84
2018-08-09T20:46:50.908Z,27.83
2018-08-09T20:49:20.624Z,27.84
2018-08-09T20:51:50.157Z,27.84
2018-08-09T20:54:19.820Z,27.85
2018-08-09T20:56:49.072Z,27.88
2018-08-09T20:59:18.313Z,27.93
2018-08-09T21:01:47.493Z,27.95
2018-08-09T21:04:17.065Z,27.93
2018-08-09T21:06:48.348Z,28.00
2018-08-09T21:09:18.005Z,28.04
2018-08-09T21:11:47.497Z,28.07
2018-08-09T21:14:17.366Z,28.12
2018-08-09T21:16:47.141Z,28.13
2018-08-09T21:19:29.259Z,28.13
2018-08-09T21:21:59.417Z,28.12
2018-08-09T21:24:29.486Z,28.12
2018-08-09T21:26:58.842Z,28.11
2018-08-09T21:29:28.105Z,28.11
2018-08-09T21:32:13.992Z,28.13
2018-08-09T21:34:44.076Z,28.12
2018-08-09T21:37:14.647Z,28.11
2018-08-09T21:39:44.468Z,28.11
2018-08-09T21:42:14.688Z,28.10
2018-08-09T21:44:43.952Z,28.07
2018-08-09T21:47:13.173Z,28.06
2018-08-09T21:49:43.038Z,28.06
2018-08-09T21:52:13.269Z,27.99
2018-08-09T21:54:42.618Z,27.97
2018-08-09T21:57:11.945Z,27.96
2018-08-09T21:59:41.683Z,27.96
2018-08-09T22:02:11.719Z,27.96
2018-08-09T22:04:46.252Z,27.93
2018-08-09T22:07:20.860Z,27.91
2018-08-09T22:09:55.485Z,27.89
2018-08-09T22:12:30.120Z,27.86
2018-08-09T22:15:04.665Z,27.83
2018-08-09T22:17:40.020Z,27.81
2018-08-09T22:21:12.293Z,27.78
2018-08-09T22:23:42.041Z,27.71
2018-08-09T22:26:12.340Z,27.70
2018-08-09T22:28:42.643Z,27.71
2018-08-09T22:31:12.160Z,27.72
2018-08-09T22:33:41.467Z,27.74
2018-08-09T22:36:10.705Z,27.71
2018-08-09T22:38:40.103Z,27.66
2018-08-09T22:41:09.668Z,27.59
2018-08-09T22:43:39.276Z,27.54
2018-08-09T22:46:12.062Z,27.47
2018-08-09T22:48:41.505Z,27.41
2018-08-09T22:51:11.226Z,27.35
2018-08-09T22:53:41.864Z,27.28
2018-08-09T22:56:11.142Z,27.26
2018-08-09T22:58:40.527Z,27.18
2018-08-09T23:01:10.413Z,27.10
2018-08-09T23:03:40.340Z,27.05
2018-08-09T23:06:09.831Z,27.03
2018-08-09T23:08:40.496Z,27.00
2018-08-09T23:11:10.046Z,26.95
2018-08-09T23:13:39.296Z,26.88
2018-08-09T23:16:08.567Z,26.80
2018-08-09T23:18:37.782Z,26.75
2018-08-09T23:21:07.816Z,26.69
2018-08-09T23:23:37.301Z,26.60
2018-08-09T23:26:06.568Z,26.52
2018-08-09T23:28:35.809Z,26.41
2018-08-09T23:31:05.092Z,26.37
2018-08-09T23:33:34.368Z,26.35
2018-08-09T23:36:03.617Z,26.30
2018-08-09T23:38:32.884Z,26.26
2018-08-09T23:41:02.180Z,26.25
2018-08-09T23:43:31.344Z,26.15
2018-08-09T23:46:00.536Z,26.06
2018-08-09T23:48:30.127Z,25.98
2018-08-09T23:50:59.504Z,25.83
2018-08-09T23:53:28.717Z,25.71
2018-08-09T23:55:57.940Z,25.66
2018-08-09T23:58:27.532Z,25.61
